createdAt,value
2018-12-07T00:02:08.311Z,12.10
2018-12-07T00:04:36.663Z,12.10
2018-12-07T00:07:05.160Z,12.10
2018-12-07T00:09:33.491Z,12.10
2018-12-07T00:12:01.946Z,12.10
2018-12-07T00:14:30.399Z,12.10
2018-12-07T00:16:59.007Z,12.10
2018-12-07T00:19:27.954Z,12.10
2018-12-07T00:21:56.677Z,12.10
2018-12-07T00:24:25.084Z,12.10
2018-12-07T00:26:53.423Z,12.10
2018-12-07T00:29:22.272Z,12.10
2018-12-07T00:31:50.968Z,12.10
2018-12-07T00:34:19.320Z,12.10
2018-12-07T00:36:48.392Z,12.10
2018-12-07T00:39:16.754Z,12.10
2018-12-07T00:41:45.100Z,12.00
2018-12-07T00:44:13.835Z,12.00
2018-12-07T00:46:42.218Z,12.00
2018-12-07T00:49:10.575Z,12.00
2018-12-07T00:51:39.400Z,12.00
2018-12-07T00:54:07.745Z,12.00
2018-12-07T00:56:36.099Z,12.00
2018-12-07T00:59:04.866Z,12.10
2018-12-07T01:01:33.231Z,12.10
2018-12-07T01:04:01.580Z,12.10
2018-12-07T01:06:30.684Z,12.00
2018-12-07T01:08:59.139Z,12.00
2018-12-07T01:11:27.477Z,12.00
2018-12-07T01:13:56.146Z,12.00
2018-12-07T01:16:24.487Z,12.00
2018-12-07T01:18:52.930Z,12.10
2018-12-07T01:21:21.646Z,12.00
2018-12-07T01:23:50.006Z,12.00
2018-12-07T01:26:18.452Z,12.00
2018-12-07T01:28:47.102Z,12.00
2018-12-07T01:31:15.438Z,12.00
2018-12-07T01:33:43.907Z,12.00
2018-12-07T01:36:12.360Z,12.00
2018-12-07T01:38:40.710Z,12.00
2018-12-07T01:41:09.326Z,12.00
2018-12-07T01:43:38.234Z,12.00
2018-12-07T01:46:06.684Z,12.00
2018-12-07T01:48:35.018Z,12.00
2018-12-07T01:51:03.852Z,12.00
2018-12-07T01:53:32.179Z,12.00
2018-12-07T01:56:00.612Z,12.00
2018-12-07T01:58:29.010Z,12.00
2018-12-07T02:00:57.387Z,12.00
2018-12-07T02:03:26.038Z,12.00
2018-12-07T02:05:54.414Z,12.00
2018-12-07T02:08:22.747Z,12.00
2018-12-07T02:10:51.078Z,12.00
2018-12-07T02:13:20.015Z,12.00
2018-12-07T02:15:48.363Z,12.00
2018-12-07T02:18:16.697Z,12.00
2018-12-07T02:20:45.458Z,12.00
2018-12-07T02:23:13.804Z,12.00
2018-12-07T02:25:42.143Z,12.00
2018-12-07T02:28:10.917Z,12.00
2018-12-07T02:30:39.270Z,12.00
2018-12-07T02:33:07.626Z,12.00
2018-12-07T02:35:36.325Z,12.10
2018-12-07T02:38:04.795Z,12.10
2018-12-07T02:40:33.149Z,12.10
2018-12-07T02:43:01.982Z,12.10
2018-12-07T02:45:30.326Z,12.10
2018-12-07T02:47:58.706Z,12.10
2018-12-07T02:50:27.635Z,12.10
2018-12-07T02:52:55.983Z,12.10
2018-12-07T02:55:24.349Z,12.10
2018-12-07T02:57:53.254Z,12.10
2018-12-07T03:00:21.642Z,12.10
2018-12-07T03:02:49.994Z,12.10
2018-12-07T03:05:18.366Z,12.10
2018-12-07T03:07:46.823Z,12.10
2018-12-07T03:10:15.183Z,12.10
2018-12-07T03:12:43.602Z,12.10
2018-12-07T03:15:12.042Z,12.10
2018-12-07T03:17:40.427Z,12.10
2018-12-07T03:20:09.640Z,12.10
2018-12-07T03:22:37.983Z,12.10
2018-12-07T03:25:06.523Z,12.10
2018-12-07T03:27:35.404Z,12.10
2018-12-07T03:30:04.615Z,12.10
2018-12-07T03:32:33.068Z,12.10
2018-12-07T03:35:01.537Z,12.10
2018-12-07T03:37:30.114Z,12.10
2018-12-07T03:39:58.462Z,12.10
2018-12-07T03:42:27.251Z,12.10
2018-12-07T03:44:55.627Z,12.10
2018-12-07T03:47:23.955Z,12.00
2018-12-07T03:49:52.386Z,12.00
2018-12-07T03:52:20.706Z,12.00
2018-12-07T03:54:49.063Z,12.00
2018-12-07T03:57:17.684Z,12.00
2018-12-07T03:59:46.011Z,12.00
2018-12-07T04:02:14.595Z,12.00
2018-12-07T04:04:43.105Z,12.00
2018-12-07T04:07:11.538Z,12.00
2018-12-07T04:09:39.890Z,12.00
2018-12-07T04:12:09.022Z,12.00
2018-12-07T04:14:37.352Z,12.00
2018-12-07T04:17:05.703Z,12.00
2018-12-07T04:19:34.612Z,12.00
2018-12-07T04:22:03.000Z,12.00
2018-12-07T04:24:31.340Z,12.00
2018-12-07T04:27:00.306Z,12.00
2018-12-07T04:29:28.652Z,12.00
2018-12-07T04:31:57.023Z,11.90
2018-12-07T04:34:25.939Z,11.90
2018-12-07T04:36:54.404Z,11.90
2018-12-07T04:39:22.855Z,11.90
2018-12-07T04:41:51.226Z,11.90
2018-12-07T04:44:19.570Z,11.90
2018-12-07T04:46:47.907Z,11.90
2018-12-07T04:49:16.558Z,11.90
2018-12-07T04:51:44.984Z,11.90
2018-12-07T04:54:13.335Z,11.90
2018-12-07T04:56:42.274Z,11.90
2018-12-07T04:59:10.658Z,11.90
2018-12-07T05:01:39.007Z,11.90
2018-12-07T05:04:08.335Z,11.90
2018-12-07T05:06:36.717Z,11.90
2018-12-07T05:09:07.191Z,11.80
2018-12-07T05:11:35.574Z,11.90
2018-12-07T05:14:04.219Z,11.90
2018-12-07T05:16:32.565Z,11.90
2018-12-07T05:19:01.416Z,11.80
2018-12-07T05:21:29.761Z,11.80
2018-12-07T05:23:58.106Z,11.80
2018-12-07T05:26:26.511Z,11.80
2018-12-07T05:28:54.854Z,11.80
2018-12-07T05:31:23.196Z,11.80
2018-12-07T05:33:51.567Z,11.80
2018-12-07T05:36:19.923Z,11.90
2018-12-07T05:38:48.253Z,11.90
2018-12-07T05:41:16.817Z,11.80
2018-12-07T05:43:56.984Z,11.90
2018-12-07T05:46:25.463Z,11.90
2018-12-07T05:48:54.112Z,11.90
2018-12-07T05:51:22.451Z,11.90
2018-12-07T05:53:50.854Z,11.90
2018-12-07T05:56:19.296Z,11.90
2018-12-07T05:58:47.649Z,11.90
2018-12-07T06:01:16.272Z,11.90
2018-12-07T06:03:44.637Z,11.90
2018-12-07T06:06:13.684Z,11.90
2018-12-07T06:08:42.800Z,11.90
2018-12-07T06:11:11.159Z,11.90
2018-12-07T06:13:39.508Z,11.90
2018-12-07T06:16:08.334Z,11.90
2018-12-07T06:18:36.680Z,11.90
2018-12-07T06:21:05.050Z,11.90
2018-12-07T06:23:33.539Z,11.90
2018-12-07T06:26:01.910Z,11.90
2018-12-07T06:28:30.363Z,11.90
2018-12-07T06:30:59.452Z,11.90
2018-12-07T06:33:27.819Z,11.90
2018-12-07T06:35:56.284Z,11.90
2018-12-07T06:38:24.761Z,11.90
2018-12-07T06:40:53.222Z,11.90
2018-12-07T06:43:21.654Z,11.90
2018-12-07T06:45:50.450Z,11.90
2018-12-07T06:48:18.836Z,11.90
2018-12-07T06:50:47.163Z,11.90
2018-12-07T06:53:16.075Z,11.90
2018-12-07T06:55:44.443Z,11.90
2018-12-07T06:58:12.808Z,11.90
2018-12-07T07:00:41.519Z,11.90
2018-12-07T07:03:09.902Z,11.90
2018-12-07T07:05:38.272Z,11.90
2018-12-07T07:08:10.955Z,11.90
2018-12-07T07:10:39.335Z,11.90
2018-12-07T07:13:07.735Z,11.90
2018-12-07T07:15:36.167Z,11.90
2018-12-07T07:18:04.598Z,11.90
2018-12-07T07:20:32.942Z,11.90
2018-12-07T07:23:01.367Z,11.90
2018-12-07T07:25:29.708Z,11.90
2018-12-07T07:27:58.099Z,11.90
2018-12-07T07:30:26.491Z,11.90
2018-12-07T07:32:55.667Z,11.90
2018-12-07T07:35:24.021Z,11.90
2018-12-07T07:37:52.415Z,11.90
2018-12-07T07:40:20.767Z,11.90
2018-12-07T07:42:49.114Z,11.80
2018-12-07T07:45:18.807Z,11.80
2018-12-07T07:47:47.170Z,11.80
2018-12-07T07:50:15.675Z,11.80
2018-12-07T07:52:44.200Z,11.80
2018-12-07T07:55:12.578Z,11.90
2018-12-07T07:57:40.922Z,11.90
2018-12-07T08:00:09.422Z,11.90
2018-12-07T08:02:37.789Z,11.90
2018-12-07T08:05:06.267Z,11.90
2018-12-07T08:07:35.122Z,11.90
2018-12-07T08:10:03.687Z,11.90
2018-12-07T08:12:32.039Z,12.00
2018-12-07T08:15:01.097Z,12.00
2018-12-07T08:17:29.471Z,12.00
2018-12-07T08:19:57.962Z,12.00
2018-12-07T08:22:26.796Z,12.00
2018-12-07T08:24:55.147Z,12.00
2018-12-07T08:27:23.521Z,11.90
2018-12-07T08:29:52.395Z,11.90
2018-12-07T08:32:20.855Z,11.90
2018-12-07T08:34:49.307Z,12.00
2018-12-07T08:37:18.026Z,11.90
2018-12-07T08:39:46.478Z,11.90
2018-12-07T08:42:14.835Z,11.90
2018-12-07T08:44:43.462Z,11.90
2018-12-07T08:47:12.025Z,11.90
2018-12-07T08:49:46.191Z,11.90
2018-12-07T08:52:14.655Z,11.90
2018-12-07T08:54:42.994Z,11.90
2018-12-07T08:57:11.979Z,11.90
2018-12-07T08:59:41.310Z,11.90
2018-12-07T09:02:09.760Z,11.90
2018-12-07T09:04:38.881Z,11.90
2018-12-07T09:07:08.520Z,11.90
2018-12-07T09:09:37.214Z,12.00
2018-12-07T09:12:06.516Z,12.00
2018-12-07T09:14:34.899Z,12.00
2018-12-07T09:17:03.352Z,12.00
2018-12-07T09:19:32.524Z,12.00
2018-12-07T09:22:00.883Z,12.00
2018-12-07T09:24:29.348Z,12.10
2018-12-07T09:26:58.335Z,12.10
2018-12-07T09:29:26.699Z,12.10
2018-12-07T09:31:55.083Z,12.10
2018-12-07T09:34:23.555Z,12.10
2018-12-07T09:36:51.944Z,12.10
2018-12-07T09:39:20.315Z,12.10
2018-12-07T09:41:48.810Z,12.20
2018-12-07T09:44:17.314Z,12.10
2018-12-07T09:46:45.667Z,12.10
2018-12-07T09:49:15.295Z,12.10
2018-12-07T09:51:43.709Z,12.10
2018-12-07T09:54:12.156Z,12.10
2018-12-07T09:56:40.831Z,12.10
2018-12-07T09:59:09.195Z,12.10
2018-12-07T10:01:37.557Z,12.20
2018-12-07T10:04:05.963Z,12.20
2018-12-07T10:06:34.326Z,12.20
2018-12-07T10:09:02.669Z,12.20
2018-12-07T10:11:31.483Z,12.20
2018-12-07T10:13:59.883Z,12.20
2018-12-07T10:16:28.236Z,12.20
2018-12-07T10:18:57.351Z,12.20
2018-12-07T10:21:25.798Z,12.20
2018-12-07T10:23:54.146Z,12.20
2018-12-07T10:26:22.907Z,12.20
2018-12-07T10:28:51.415Z,12.30
2018-12-07T10:31:19.799Z,12.30
2018-12-07T10:33:48.490Z,12.30
2018-12-07T10:36:17.066Z,12.30
2018-12-07T10:38:45.416Z,12.30
2018-12-07T10:41:13.770Z,12.30
2018-12-07T10:43:42.118Z,12.30
2018-12-07T10:46:10.526Z,12.30
2018-12-07T10:48:39.450Z,12.30
2018-12-07T10:51:08.433Z,12.30
2018-12-07T10:53:36.848Z,12.30
2018-12-07T10:56:05.943Z,12.30
2018-12-07T10:58:34.324Z,12.30
2018-12-07T11:01:08.313Z,12.30
2018-12-07T11:03:42.134Z,12.20
2018-12-07T11:06:16.062Z,12.30
2018-12-07T11:08:49.701Z,12.20
2018-12-07T11:13:29.513Z,12.20
2018-12-07T11:16:03.182Z,12.30
2018-12-07T11:18:37.523Z,12.20
2018-12-07T11:21:11.205Z,12.30
2018-12-07T11:23:45.144Z,12.30
2018-12-07T11:26:18.939Z,12.30
2018-12-07T11:30:54.803Z,12.30
2018-12-07T11:33:35.311Z,12.30
2018-12-07T11:36:08.149Z,12.30
2018-12-07T11:38:34.483Z,12.40
2018-12-07T11:41:03.831Z,12.40
2018-12-07T11:43:32.525Z,12.40
2018-12-07T11:46:00.916Z,12.40
2018-12-07T11:48:29.274Z,12.40
2018-12-07T11:50:57.924Z,12.50
2018-12-07T11:53:26.451Z,12.50
2018-12-07T11:55:54.803Z,12.50
2018-12-07T11:58:23.494Z,12.50
2018-12-07T12:00:51.827Z,12.40
2018-12-07T12:03:20.383Z,12.40
2018-12-07T12:05:49.928Z,12.30
2018-12-07T12:08:18.353Z,12.30
2018-12-07T12:10:46.699Z,12.20
2018-12-07T12:13:15.438Z,12.20
2018-12-07T12:15:43.878Z,12.10
2018-12-07T12:18:12.782Z,12.10
2018-12-07T12:20:41.432Z,12.10
2018-12-07T12:23:10.558Z,12.10
2018-12-07T12:25:38.945Z,12.10
2018-12-07T12:28:07.399Z,12.10
2018-12-07T12:30:35.871Z,12.20
2018-12-07T12:33:04.531Z,12.20
2018-12-07T12:35:34.898Z,12.20
2018-12-07T12:38:03.406Z,12.30
2018-12-07T12:40:31.743Z,12.30
2018-12-07T12:43:00.606Z,12.20
2018-12-07T12:45:29.011Z,12.20
2018-12-07T12:47:57.619Z,12.30
2018-12-07T12:50:31.389Z,12.30
2018-12-07T12:52:59.749Z,12.30
2018-12-07T12:55:28.785Z,12.30
2018-12-07T12:57:57.415Z,12.30
2018-12-07T13:00:26.275Z,12.30
2018-12-07T13:02:54.847Z,12.30
2018-12-07T13:05:23.271Z,12.30
2018-12-07T13:07:51.633Z,12.20
2018-12-07T13:10:19.979Z,12.30
2018-12-07T13:12:48.663Z,12.30
2018-12-07T13:15:17.099Z,12.20
2018-12-07T13:17:45.445Z,12.20
2018-12-07T13:20:14.207Z,12.20
2018-12-07T13:22:42.539Z,12.20
2018-12-07T13:25:10.932Z,12.20
2018-12-07T13:27:39.390Z,12.20
2018-12-07T13:30:07.822Z,12.20
2018-12-07T13:32:36.294Z,12.30
2018-12-07T13:35:05.126Z,12.20
2018-12-07T13:37:33.518Z,12.30
2018-12-07T13:40:02.312Z,12.20
2018-12-07T13:42:31.537Z,12.20
2018-12-07T13:45:00.174Z,12.20
2018-12-07T13:47:28.649Z,12.20
2018-12-07T13:50:02.550Z,12.20
2018-12-07T13:52:31.059Z,12.20
2018-12-07T13:54:59.565Z,12.10
2018-12-07T13:57:28.917Z,12.10
2018-12-07T13:59:57.386Z,12.10
2018-12-07T14:02:26.181Z,12.10
2018-12-07T14:04:54.913Z,12.00
2018-12-07T14:07:23.346Z,12.00
2018-12-07T14:09:51.915Z,12.00
2018-12-07T14:12:20.499Z,12.00
2018-12-07T14:14:48.958Z,11.90
2018-12-07T14:17:18.101Z,11.90
2018-12-07T14:19:47.547Z,11.90
2018-12-07T14:22:16.117Z,11.90
2018-12-07T14:24:44.845Z,11.80
2018-12-07T14:27:13.896Z,11.80
2018-12-07T14:29:42.541Z,11.80
2018-12-07T14:32:11.046Z,11.80
2018-12-07T14:34:39.626Z,11.80
2018-12-07T14:37:08.257Z,11.80
2018-12-07T14:39:37.291Z,11.80
2018-12-07T14:42:06.288Z,11.80
2018-12-07T14:44:34.787Z,11.80
2018-12-07T14:47:03.528Z,11.70
2018-12-07T14:49:34.671Z,11.70
2018-12-07T14:52:03.374Z,11.70
2018-12-07T14:54:32.281Z,11.70
2018-12-07T14:57:01.686Z,11.60
2018-12-07T14:59:30.309Z,11.60
2018-12-07T15:01:58.775Z,11.60
2018-12-07T15:04:27.727Z,11.60
2018-12-07T15:06:56.437Z,11.60
2018-12-07T15:09:25.172Z,11.60
2018-12-07T15:11:54.020Z,11.50
2018-12-07T15:14:22.382Z,11.60
2018-12-07T15:16:50.792Z,11.50
2018-12-07T15:19:20.078Z,11.50
2018-12-07T15:21:48.449Z,11.50
2018-12-07T15:24:16.794Z,11.40
2018-12-07T15:26:45.607Z,11.40
2018-12-07T15:29:14.045Z,11.40
2018-12-07T15:31:42.774Z,11.40
2018-12-07T15:34:12.220Z,11.40
2018-12-07T15:36:40.810Z,11.40
2018-12-07T15:39:09.906Z,11.40
2018-12-07T15:41:39.016Z,11.40
2018-12-07T15:44:07.815Z,11.40
2018-12-07T15:46:36.262Z,11.40
2018-12-07T15:49:05.288Z,11.40
2018-12-07T15:51:33.689Z,11.40
2018-12-07T15:54:02.160Z,11.40
2018-12-07T15:56:30.855Z,11.30
2018-12-07T15:58:59.492Z,10.80
2018-12-07T16:01:28.415Z,10.60
2018-12-07T16:03:57.112Z,10.40
2018-12-07T16:06:25.631Z,10.30
2018-12-07T16:08:54.701Z,10.20
2018-12-07T16:11:23.286Z,9.90
2018-12-07T16:13:51.761Z,9.80
2018-12-07T16:16:20.926Z,9.80
2018-12-07T16:18:49.587Z,9.70
2018-12-07T16:21:18.168Z,9.60
2018-12-07T16:23:46.743Z,9.60
2018-12-07T16:26:15.772Z,9.60
2018-12-07T16:28:44.386Z,9.50
2018-12-07T16:31:12.873Z,9.40
2018-12-07T16:33:41.264Z,9.40
2018-12-07T16:36:10.466Z,9.30
2018-12-07T16:38:38.895Z,9.30
2018-12-07T16:41:07.418Z,9.20
2018-12-07T16:43:35.825Z,9.20
2018-12-07T16:46:04.374Z,9.10
2018-12-07T16:48:32.988Z,9.10
2018-12-07T16:51:01.407Z,9.00
2018-12-07T16:53:31.153Z,9.00
2018-12-07T16:56:00.210Z,9.00
2018-12-07T16:58:28.938Z,9.00
2018-12-07T17:00:57.718Z,9.00
2018-12-07T17:03:27.095Z,8.80
2018-12-07T17:05:55.556Z,8.90
2018-12-07T17:08:23.920Z,8.90
2018-12-07T17:10:52.883Z,8.90
2018-12-07T17:13:21.514Z,8.90
2018-12-07T17:15:50.200Z,8.80
2018-12-07T17:18:19.019Z,8.80
2018-12-07T17:20:47.401Z,8.80
2018-12-07T17:23:15.880Z,8.80
2018-12-07T17:25:45.233Z,8.80
2018-12-07T17:28:13.862Z,8.80
2018-12-07T17:30:42.446Z,8.70
2018-12-07T17:33:11.057Z,8.70
2018-12-07T17:35:39.483Z,8.70
2018-12-07T17:38:09.249Z,8.60
2018-12-07T17:40:38.219Z,8.60
2018-12-07T17:43:06.755Z,8.60
2018-12-07T17:45:35.103Z,8.60
2018-12-07T17:48:03.920Z,8.60
2018-12-07T17:50:32.576Z,8.60
2018-12-07T17:53:01.350Z,8.60
2018-12-07T17:55:30.421Z,8.50
2018-12-07T17:57:58.850Z,8.60
2018-12-07T18:00:27.442Z,8.50
2018-12-07T18:02:56.870Z,8.60
2018-12-07T18:05:25.922Z,8.50
2018-12-07T18:07:54.507Z,8.50
2018-12-07T18:10:23.283Z,8.40
2018-12-07T18:12:51.787Z,8.40
2018-12-07T18:15:20.282Z,8.50
2018-12-07T18:17:49.499Z,8.50
2018-12-07T18:20:18.046Z,8.50
2018-12-07T18:22:46.699Z,8.50
2018-12-07T18:25:15.254Z,8.50
2018-12-07T18:27:43.894Z,8.60
2018-12-07T18:30:13.113Z,8.60
2018-12-07T18:32:41.653Z,8.70
2018-12-07T18:35:10.320Z,8.70
2018-12-07T18:37:38.842Z,8.60
2018-12-07T18:40:07.868Z,8.50
2018-12-07T18:42:36.548Z,8.40
2018-12-07T18:45:05.270Z,8.20
2018-12-07T18:47:33.793Z,8.10
2018-12-07T18:50:02.273Z,7.90
2018-12-07T18:52:30.905Z,7.90
2018-12-07T18:54:59.627Z,7.80
2018-12-07T18:57:28.636Z,7.70
2018-12-07T18:59:57.725Z,7.60
2018-12-07T19:02:26.788Z,7.60
2018-12-07T19:04:55.310Z,7.60
2018-12-07T19:07:23.973Z,7.50
2018-12-07T19:09:52.775Z,7.50
2018-12-07T19:12:21.404Z,7.60
2018-12-07T19:14:50.780Z,7.60
2018-12-07T19:17:20.226Z,7.70
2018-12-07T19:19:48.672Z,7.70
2018-12-07T19:22:17.283Z,7.70
2018-12-07T19:24:45.830Z,7.80
2018-12-07T19:27:14.514Z,7.80
2018-12-07T19:29:42.964Z,7.80
2018-12-07T19:32:11.594Z,7.80
2018-12-07T19:34:40.487Z,7.80
2018-12-07T19:37:09.202Z,7.80
2018-12-07T19:39:38.954Z,7.70
2018-12-07T19:42:07.588Z,7.70
2018-12-07T19:44:36.235Z,7.70
2018-12-07T19:47:05.237Z,7.70
2018-12-07T19:49:34.001Z,7.70
2018-12-07T19:52:02.787Z,7.60
2018-12-07T19:54:32.579Z,7.60
2018-12-07T19:57:00.955Z,7.70
2018-12-07T19:59:29.371Z,7.70
2018-12-07T20:01:59.051Z,7.80
2018-12-07T20:04:27.521Z,7.80
2018-12-07T20:06:56.054Z,7.80
2018-12-07T20:09:24.922Z,7.80
2018-12-07T20:11:53.434Z,7.80
2018-12-07T20:14:21.836Z,7.80
2018-12-07T20:16:50.818Z,7.70
2018-12-07T20:19:19.615Z,7.70
2018-12-07T20:21:48.343Z,7.70
2018-12-07T20:24:17.046Z,7.70
2018-12-07T20:26:45.670Z,7.80
2018-12-07T20:29:14.358Z,7.90
2018-12-07T20:31:43.368Z,7.90
2018-12-07T20:34:12.175Z,7.90
2018-12-07T20:36:40.744Z,7.90
2018-12-07T20:39:09.319Z,7.90
2018-12-07T20:41:37.751Z,7.80
2018-12-07T20:44:06.303Z,7.80
2018-12-07T20:46:34.882Z,7.80
2018-12-07T20:49:03.373Z,7.70
2018-12-07T20:51:31.870Z,7.70
2018-12-07T20:54:00.746Z,7.60
2018-12-07T20:56:29.208Z,7.60
2018-12-07T20:58:57.894Z,7.50
2018-12-07T21:01:27.071Z,7.50
2018-12-07T21:04:12.246Z,7.50
2018-12-07T21:07:28.111Z,7.50
2018-12-07T21:11:02.432Z,7.50
2018-12-07T21:13:42.371Z,7.50
2018-12-07T21:17:24.389Z,7.50
2018-12-07T21:20:17.200Z,7.50
2018-12-07T21:22:45.802Z,7.50
2018-12-07T21:25:14.807Z,7.50
2018-12-07T21:27:43.682Z,7.50
2018-12-07T21:31:22.042Z,7.60
2018-12-07T21:34:03.686Z,7.50
2018-12-07T21:36:39.440Z,7.50
2018-12-07T21:40:16.770Z,7.50
2018-12-07T21:42:45.403Z,7.50
2018-12-07T21:45:13.898Z,7.40
2018-12-07T21:53:03.169Z,7.30
2018-12-07T21:55:31.653Z,7.40
2018-12-07T21:58:00.290Z,7.30
2018-12-07T22:00:29.199Z,7.30
2018-12-07T22:03:01.862Z,7.30
2018-12-07T22:05:28.188Z,7.30
2018-12-07T22:07:56.895Z,7.30
2018-12-07T22:10:25.500Z,7.30
2018-12-07T22:12:53.898Z,7.30
2018-12-07T22:15:22.926Z,7.40
2018-12-07T22:17:51.415Z,7.30
2018-12-07T22:20:19.863Z,7.30
2018-12-07T22:22:48.839Z,7.40
2018-12-07T22:25:17.440Z,7.40
2018-12-07T22:27:46.172Z,7.30
2018-12-07T22:30:15.252Z,7.40
2018-12-07T22:32:43.881Z,7.30
2018-12-07T22:35:12.485Z,7.30
2018-12-07T22:37:41.499Z,7.30
2018-12-07T22:40:10.167Z,7.30
2018-12-07T22:42:38.763Z,7.50
2018-12-07T22:45:07.794Z,7.50
2018-12-07T22:47:36.208Z,7.50
2018-12-07T22:50:04.931Z,7.40
2018-12-07T22:52:33.575Z,7.40
2018-12-07T22:55:01.932Z,7.40
2018-12-07T22:57:30.320Z,7.40
2018-12-07T22:59:59.462Z,7.40
2018-12-07T23:02:27.927Z,7.50
2018-12-07T23:04:56.379Z,7.40
2018-12-07T23:07:24.822Z,7.50
2018-12-07T23:09:53.166Z,7.50
2018-12-07T23:12:21.654Z,7.50
2018-12-07T23:14:50.072Z,7.50
2018-12-07T23:17:18.442Z,7.50
2018-12-07T23:19:46.784Z,7.60
2018-12-07T23:22:15.154Z,7.60
2018-12-07T23:24:43.519Z,7.60
2018-12-07T23:27:11.866Z,7.60
2018-12-07T23:29:40.257Z,7.60
2018-12-07T23:32:08.626Z,7.50
2018-12-07T23:34:37.490Z,7.50
2018-12-07T23:37:05.886Z,7.50
2018-12-07T23:39:34.222Z,7.40
2018-12-07T23:42:02.671Z,7.50
2018-12-07T23:44:31.325Z,7.50
2018-12-07T23:46:59.867Z,7.40
2018-12-07T23:49:28.221Z,7.40
2018-12-07T23:51:57.315Z,7.30
2018-12-07T23:54:25.676Z,7.40
2018-12-07T23:56:54.011Z,7.50
2018-12-07T23:59:22.513Z,7.50
